Volkel, Netherlands
Current Conditions -  °F | °C
As of 1:25 PM on Sunday 25 Jan 2015 (Local Time) from EHVK Reporting Station
Light Rain Light Rain  
Wind Chill: 31°   Ceiling: 5200
Heat Index: 37°   Visibility: 4mi
Dew Point: 37°   Wind: 8mph
Humidity: 100%   Direction: 230°SW
Pressure: 30.36"   Gusts: NA
Location:  51.64°N, 5.65°E
Report Text: EHVK 251225Z AUTO 23007KT 6000 -RADZ OVC052 03/03 Q1028 WHT
Loading
Personal Weather Stations






























Interactive Weather Map New forecast layout! Learn more

10-Day Weather Forecast

Advertisements
Track Severe Weather on mobile